Time;durP1;ratioP1;P1;durP2;ratioP2;P2;SDS_P1;SDS_P2;PMS_P1;PMS_P2;Temp;Humidity;BMP_temperature;BMP_pressure;BME280_temperature;BME280_humidity;BME280_pressure;Samples;Min_cycle;Max_cycle;Signal;HPM_P1;HPM_P2
2022/09/11 00:01:02;;;;;;;12.02;8.85;;;15.30;99.90;;;;;;5088160;28;20034;-73
2022/09/11 00:03:30;;;;;;;10.98;8.07;;;15.30;99.90;;;;;;5104898;28;20036;-73
2022/09/11 00:06:00;;;;;;;11.23;7.10;;;15.20;99.90;;;;;;5105090;28;20039;-72
2022/09/11 00:08:26;;;;;;;11.85;7.13;;;15.10;99.90;;;;;;5106387;28;20065;-72
2022/09/11 00:10:51;;;;;;;10.55;7.75;;;15.10;99.90;;;;;;5106566;28;20829;-72
2022/09/11 00:13:21;;;;;;;12.85;8.20;;;15.00;99.90;;;;;;5109886;28;20031;-73
2022/09/11 00:15:51;;;;;;;10.32;8.02;;;15.00;99.90;;;;;;5090862;28;20442;-72
2022/09/11 00:18:20;;;;;;;17.13;8.90;;;15.00;99.90;;;;;;5106896;28;20024;-72
2022/09/11 00:20:51;;;;;;;14.32;9.80;;;14.90;99.90;;;;;;5106009;28;20067;-72
2022/09/11 00:23:22;;;;;;;12.02;9.02;;;14.90;99.90;;;;;;5091625;28;20035;-72
2022/09/11 00:25:48;;;;;;;12.98;9.80;;;14.80;99.90;;;;;;5107724;28;20032;-72
2022/09/11 00:28:16;;;;;;;11.93;10.30;;;14.80;99.90;;;;;;5105531;28;20031;-72
2022/09/11 00:30:43;;;;;;;13.38;9.32;;;14.70;99.90;;;;;;5108077;28;20032;-72
2022/09/11 00:33:13;;;;;;;11.93;8.32;;;14.70;99.90;;;;;;5107664;28;20097;-73
2022/09/11 00:35:40;;;;;;;13.25;8.75;;;14.70;99.90;;;;;;5090459;28;20114;-72
2022/09/11 00:38:07;;;;;;;12.27;9.07;;;14.60;99.90;;;;;;5107617;28;20050;-72
2022/09/11 00:40:44;;;;;;;12.18;8.90;;;14.50;99.90;;;;;;5090327;28;20050;-72
2022/09/11 00:43:12;;;;;;;13.40;8.98;;;14.50;99.90;;;;;;5105040;28;20059;-72
2022/09/11 00:45:38;;;;;;;13.07;9.43;;;14.60;99.90;;;;;;5107933;28;20047;-72
2022/09/11 00:48:04;;;;;;;12.52;9.70;;;14.60;99.90;;;;;;5107693;28;20031;-72
2022/09/11 00:50:31;;;;;;;12.40;8.07;;;14.60;99.90;;;;;;5106796;28;20028;-73
2022/09/11 00:53:07;;;;;;;12.05;8.85;;;14.60;99.90;;;;;;5088842;28;20092;-72
2022/09/11 00:55:36;;;;;;;17.42;10.20;;;14.50;99.90;;;;;;5104844;28;20031;-72
2022/09/11 00:58:09;;;;;;;15.60;10.70;;;14.50;99.90;;;;;;5107423;28;20035;-72
2022/09/11 01:00:38;;;;;;;15.23;10.13;;;14.40;99.90;;;;;;5107532;28;20031;-72
2022/09/11 01:03:04;;;;;;;14.65;10.90;;;14.50;99.90;;;;;;5109291;28;20067;-71
2022/09/11 01:05:33;;;;;;;13.60;10.40;;;14.50;99.90;;;;;;5107607;28;20108;-71
2022/09/11 01:08:02;;;;;;;12.85;9.95;;;14.50;99.90;;;;;;5107817;28;20039;-71
2022/09/11 01:11:15;;;;;;;13.70;9.80;;;14.50;99.90;;;;;;5087084;28;20708;-71
2022/09/11 01:13:54;;;;;;;14.02;10.07;;;14.30;99.90;;;;;;5044813;28;20301;-71
2022/09/11 01:16:32;;;;;;;13.88;9.98;;;14.30;99.90;;;;;;5043830;28;20119;-71
2022/09/11 01:19:07;;;;;;;15.82;10.38;;;14.30;99.90;;;;;;5028903;28;20037;-71
2022/09/11 01:21:55;;;;;;;14.10;10.63;;;14.30;99.90;;;;;;5027137;28;20032;-71
2022/09/11 01:24:35;;;;;;;13.73;9.75;;;14.30;99.90;;;;;;5028755;28;20578;-71
2022/09/11 01:27:11;;;;;;;11.35;8.82;;;14.20;99.90;;;;;;5041742;28;20031;-71
2022/09/11 01:29:43;;;;;;;12.68;9.93;;;14.20;99.90;;;;;;5043405;28;20166;-71
2022/09/11 01:32:20;;;;;;;12.65;10.05;;;14.10;99.90;;;;;;5043068;28;20183;-71
2022/09/11 01:35:28;;;;;;;12.85;9.68;;;14.10;99.90;;;;;;5045388;28;20029;-72
2022/09/11 01:37:59;;;;;;;13.52;10.32;;;14.10;99.90;;;;;;4970400;28;20039;-72
2022/09/11 01:40:36;;;;;;;15.82;10.30;;;14.00;99.90;;;;;;4981704;28;20039;-71
2022/09/11 01:43:12;;;;;;;13.40;11.07;;;13.90;99.90;;;;;;4983924;28;20046;-72
2022/09/11 01:45:41;;;;;;;17.48;10.95;;;13.90;99.90;;;;;;4968419;28;20915;-70
2022/09/11 01:48:09;;;;;;;14.48;10.15;;;13.90;99.90;;;;;;4982181;28;20042;-70
2022/09/11 01:50:40;;;;;;;13.05;9.68;;;13.90;99.90;;;;;;4999943;28;20069;-71
2022/09/11 01:53:08;;;;;;;12.63;9.95;;;13.90;99.90;;;;;;5023728;28;20667;-71
2022/09/11 01:55:41;;;;;;;13.10;9.63;;;13.80;99.90;;;;;;5019451;28;20119;-70
2022/09/11 01:58:11;;;;;;;12.77;9.18;;;13.80;99.90;;;;;;5005581;28;20037;-71
2022/09/11 02:00:39;;;;;;;12.68;9.32;;;13.70;99.90;;;;;;5014881;28;20045;-71
2022/09/11 02:03:04;;;;;;;14.57;9.88;;;13.70;99.90;;;;;;5024560;28;20127;-72
2022/09/11 02:05:40;;;;;;;11.15;8.95;;;13.70;99.90;;;;;;5018802;28;20087;-71
2022/09/11 02:08:38;;;;;;;11.75;9.05;;;13.70;99.90;;;;;;5033004;28;20042;-71
2022/09/11 02:11:09;;;;;;;10.52;8.55;;;13.60;99.90;;;;;;5020963;28;20518;-71
2022/09/11 02:14:04;;;;;;;12.70;10.07;;;13.60;99.90;;;;;;5046333;28;20054;-71
2022/09/11 02:16:43;;;;;;;12.63;9.60;;;13.60;99.90;;;;;;5076378;28;20112;-71
2022/09/11 02:19:23;;;;;;;13.52;10.32;;;13.60;99.90;;;;;;5105532;28;20032;-71
2022/09/11 02:21:52;;;;;;;13.30;10.98;;;13.60;99.90;;;;;;5102012;28;20040;-72
2022/09/11 02:24:19;;;;;;;11.45;8.85;;;13.50;99.90;;;;;;5106118;28;20043;-71
2022/09/11 02:26:53;;;;;;;14.35;10.13;;;13.50;99.90;;;;;;5106130;28;20028;-71
2022/09/11 02:29:20;;;;;;;13.57;9.95;;;13.50;99.90;;;;;;5102692;28;20113;-71
2022/09/11 02:31:46;;;;;;;13.57;11.10;;;13.60;99.90;;;;;;5105298;28;20042;-71
2022/09/11 02:34:13;;;;;;;11.93;10.63;;;13.60;99.90;;;;;;5107974;28;20146;-70
2022/09/11 02:36:59;;;;;;;14.80;10.68;;;13.60;99.90;;;;;;5104705;28;20106;-71
2022/09/11 02:40:02;;;;;;;13.93;11.13;;;13.50;99.90;;;;;;5086505;28;20064;-71
2022/09/11 02:42:43;;;;;;;12.68;10.82;;;13.50;99.90;;;;;;5107157;28;20089;-70
2022/09/11 02:45:23;;;;;;;14.43;11.30;;;13.50;99.90;;;;;;5106249;28;20123;-71
2022/09/11 02:48:20;;;;;;;12.93;10.52;;;13.40;99.90;;;;;;5099432;28;20103;-70
2022/09/11 02:51:16;;;;;;;14.10;11.00;;;13.30;99.90;;;;;;5103888;28;20118;-71
2022/09/11 02:54:16;;;;;;;13.23;9.73;;;13.20;99.90;;;;;;5087742;28;20126;-70
2022/09/11 02:57:04;;;;;;;13.57;10.38;;;13.20;99.90;;;;;;5108408;28;20085;-71
2022/09/11 02:59:36;;;;;;;12.85;10.68;;;13.20;99.90;;;;;;5087580;28;20028;-73
2022/09/11 03:02:01;;;;;;;13.25;10.50;;;13.20;99.90;;;;;;5109622;28;20031;-72
2022/09/11 03:04:28;;;;;;;16.08;10.68;;;13.20;99.90;;;;;;5107734;28;20023;-73
2022/09/11 03:06:55;;;;;;;13.48;10.27;;;13.10;99.90;;;;;;5109310;28;20047;-73
2022/09/11 03:09:21;;;;;;;11.88;10.63;;;13.00;99.90;;;;;;5105866;28;20040;-73
2022/09/11 03:11:47;;;;;;;15.20;11.30;;;13.10;99.90;;;;;;5109034;28;20038;-70
2022/09/11 03:14:13;;;;;;;14.07;11.77;;;13.10;99.90;;;;;;5111371;28;20088;-71
2022/09/11 03:16:39;;;;;;;12.95;10.50;;;13.10;99.90;;;;;;5105241;28;20028;-70
2022/09/11 03:19:06;;;;;;;15.73;10.38;;;13.10;99.90;;;;;;5109219;28;20031;-71
2022/09/11 03:21:32;;;;;;;13.38;10.68;;;13.10;99.90;;;;;;5090187;28;20039;-72
2022/09/11 03:23:58;;;;;;;13.93;10.82;;;13.20;99.90;;;;;;5109879;28;20124;-72
2022/09/11 03:26:24;;;;;;;13.75;10.90;;;13.10;99.90;;;;;;5106705;28;20224;-73
2022/09/11 03:28:51;;;;;;;13.35;10.30;;;13.10;99.90;;;;;;5109515;28;20366;-72
2022/09/11 03:31:16;;;;;;;13.82;11.00;;;13.10;99.90;;;;;;5106565;28;20032;-73
2022/09/11 03:33:42;;;;;;;14.77;10.82;;;13.20;99.90;;;;;;5111259;28;20042;-73
2022/09/11 03:36:09;;;;;;;13.93;11.38;;;13.20;99.90;;;;;;5088221;28;20038;-72
2022/09/11 03:38:36;;;;;;;16.45;12.32;;;13.20;99.90;;;;;;5100594;28;20027;-72
2022/09/11 03:41:02;;;;;;;13.57;11.20;;;13.30;99.90;;;;;;5109572;28;20031;-72
2022/09/11 03:43:28;;;;;;;13.90;11.57;;;13.20;99.90;;;;;;5108396;28;20425;-72
2022/09/11 03:45:54;;;;;;;15.45;11.27;;;13.20;99.90;;;;;;5092405;28;20053;-72
2022/09/11 03:48:20;;;;;;;11.45;10.07;;;13.20;99.90;;;;;;5106080;28;20400;-72
2022/09/11 03:50:46;;;;;;;15.27;10.90;;;13.20;99.90;;;;;;5106344;28;20115;-72
2022/09/11 03:53:12;;;;;;;18.02;11.50;;;13.20;99.90;;;;;;5108930;28;20031;-72
2022/09/11 03:55:38;;;;;;;14.48;11.40;;;13.20;99.90;;;;;;5110658;28;20615;-71
2022/09/11 03:58:06;;;;;;;15.15;10.70;;;13.20;99.90;;;;;;5109248;28;20108;-73
2022/09/11 04:00:32;;;;;;;13.77;11.00;;;13.20;99.90;;;;;;5108883;28;20096;-73
2022/09/11 04:02:59;;;;;;;14.70;10.65;;;13.30;99.90;;;;;;5110457;28;20039;-73
2022/09/11 04:05:25;;;;;;;15.88;11.30;;;13.30;99.90;;;;;;5107935;28;20032;-73
2022/09/11 04:07:54;;;;;;;14.13;11.45;;;13.20;99.90;;;;;;5108569;28;20551;-74
2022/09/11 04:10:20;;;;;;;12.97;11.50;;;13.30;99.90;;;;;;5108757;28;20055;-70
2022/09/11 04:12:48;;;;;;;16.00;11.50;;;13.30;99.90;;;;;;5109548;28;20385;-72
2022/09/11 04:15:14;;;;;;;14.07;10.90;;;13.20;99.90;;;;;;5089844;28;20028;-70
2022/09/11 04:17:40;;;;;;;16.40;12.00;;;13.20;99.90;;;;;;5100749;28;20543;-72
2022/09/11 04:20:07;;;;;;;13.60;11.77;;;13.10;99.90;;;;;;5105317;28;20055;-71
2022/09/11 04:22:32;;;;;;;15.27;11.88;;;13.10;99.90;;;;;;5109472;28;20036;-72
2022/09/11 04:24:59;;;;;;;15.98;10.73;;;13.10;99.90;;;;;;5107605;28;20039;-71
2022/09/11 04:27:26;;;;;;;15.50;10.68;;;13.10;99.90;;;;;;5102994;28;20039;-70
2022/09/11 04:29:51;;;;;;;14.18;11.35;;;13.10;99.90;;;;;;5100562;28;20115;-71
2022/09/11 04:32:17;;;;;;;15.10;11.60;;;13.10;99.90;;;;;;5094337;28;20167;-71
2022/09/11 04:34:43;;;;;;;14.55;11.90;;;13.10;99.90;;;;;;5109143;28;20497;-72
2022/09/11 04:37:10;;;;;;;15.90;12.27;;;13.10;99.90;;;;;;5105591;28;20028;-69
2022/09/11 04:39:36;;;;;;;15.77;10.63;;;13.00;99.90;;;;;;5107452;28;20101;-70
2022/09/11 04:42:03;;;;;;;14.90;11.20;;;13.00;99.90;;;;;;5107209;28;20035;-70
2022/09/11 04:44:29;;;;;;;16.42;12.43;;;13.00;99.90;;;;;;5109148;28;20563;-70
2022/09/11 04:46:55;;;;;;;15.35;11.80;;;13.10;99.90;;;;;;5108111;28;20035;-70
2022/09/11 04:49:22;;;;;;;14.70;12.15;;;13.10;99.90;;;;;;5104400;28;20046;-71
2022/09/11 04:51:48;;;;;;;14.35;12.52;;;13.10;99.90;;;;;;5104777;28;20077;-70
2022/09/11 04:54:16;;;;;;;19.80;13.18;;;13.10;99.90;;;;;;5102080;28;20498;-72
2022/09/11 04:56:42;;;;;;;21.50;14.35;;;13.10;99.90;;;;;;5105008;28;20420;-70
2022/09/11 04:59:14;;;;;;;18.95;14.40;;;13.10;99.90;;;;;;5104782;28;20024;-70
2022/09/11 05:01:41;;;;;;;17.98;15.05;;;13.10;99.90;;;;;;5084633;28;20073;-72
2022/09/11 05:04:09;;;;;;;18.23;13.65;;;13.10;99.90;;;;;;5107674;28;20109;-70
2022/09/11 05:06:36;;;;;;;18.52;13.45;;;13.10;99.90;;;;;;5105271;28;20035;-72
2022/09/11 05:09:04;;;;;;;17.23;14.10;;;13.00;99.90;;;;;;5103814;28;20036;-69
2022/09/11 05:11:30;;;;;;;16.67;12.68;;;12.90;99.90;;;;;;5108750;28;20452;-70
2022/09/11 05:13:59;;;;;;;19.95;12.18;;;12.90;99.90;;;;;;5106750;28;20069;-71
2022/09/11 05:16:27;;;;;;;15.43;12.02;;;12.80;99.90;;;;;;5108664;28;20096;-70
2022/09/11 05:18:53;;;;;;;14.55;11.85;;;12.80;99.90;;;;;;5106137;28;20038;-70
2022/09/11 05:21:24;;;;;;;16.55;11.82;;;12.80;99.90;;;;;;5108605;28;20035;-70
2022/09/11 05:23:52;;;;;;;14.40;11.77;;;12.70;99.90;;;;;;5102750;28;20039;-71
2022/09/11 05:26:23;;;;;;;15.65;12.15;;;12.60;99.90;;;;;;5107161;28;20054;-71
2022/09/11 05:28:56;;;;;;;22.95;13.82;;;12.60;99.90;;;;;;5104940;28;20748;-71
2022/09/11 05:31:24;;;;;;;20.02;14.00;;;12.60;99.90;;;;;;5085191;28;20067;-71
2022/09/11 05:33:51;;;;;;;26.85;14.52;;;12.60;99.90;;;;;;5092124;28;20123;-70
2022/09/11 05:36:16;;;;;;;21.50;13.65;;;12.50;99.90;;;;;;5088750;28;20568;-71
2022/09/11 05:38:43;;;;;;;43.03;15.85;;;12.60;99.90;;;;;;5087413;28;20042;-72
2022/09/11 05:41:10;;;;;;;37.25;15.68;;;12.60;99.90;;;;;;5086221;28;20035;-71
2022/09/11 05:43:36;;;;;;;34.08;17.35;;;12.60;99.90;;;;;;5090234;28;20455;-71
2022/09/11 05:46:03;;;;;;;37.15;16.48;;;12.60;99.90;;;;;;5104863;28;20053;-70
2022/09/11 05:48:30;;;;;;;35.90;16.60;;;12.50;99.90;;;;;;5088140;28;20804;-71
2022/09/11 05:50:58;;;;;;;28.48;15.85;;;12.50;99.90;;;;;;5084785;28;20058;-72
2022/09/11 05:53:25;;;;;;;44.13;16.48;;;12.50;99.90;;;;;;5088985;28;20180;-71
2022/09/11 05:55:51;;;;;;;29.52;16.05;;;12.50;99.90;;;;;;5089198;28;20550;-72
2022/09/11 05:58:18;;;;;;;31.80;16.17;;;12.50;99.90;;;;;;5108458;28;20085;-71
2022/09/11 06:00:47;;;;;;;26.88;16.30;;;12.50;99.90;;;;;;5100855;28;20131;-71
2022/09/11 06:03:13;;;;;;;37.13;16.73;;;12.60;99.90;;;;;;5104068;28;20122;-71
2022/09/11 06:05:39;;;;;;;30.08;16.85;;;12.60;99.90;;;;;;5104493;28;20492;-70
2022/09/11 06:08:07;;;;;;;37.22;16.27;;;12.60;99.90;;;;;;5106806;28;20039;-71
2022/09/11 06:10:34;;;;;;;37.72;17.15;;;12.60;99.90;;;;;;5103628;28;20108;-71
2022/09/11 06:12:59;;;;;;;38.10;16.50;;;12.60;99.90;;;;;;5089995;28;20044;-71
2022/09/11 06:15:25;;;;;;;25.58;14.18;;;12.60;99.90;;;;;;5102743;28;20032;-72
2022/09/11 06:17:52;;;;;;;41.53;15.23;;;12.70;99.90;;;;;;5108182;28;20043;-71
2022/09/11 06:20:18;;;;;;;20.35;12.85;;;12.70;99.90;;;;;;5102454;28;20043;-71
2022/09/11 06:22:43;;;;;;;22.67;13.40;;;12.70;99.90;;;;;;5105255;28;20039;-71
2022/09/11 06:25:09;;;;;;;22.50;13.82;;;12.70;99.90;;;;;;5086834;28;20031;-71
2022/09/11 06:27:35;;;;;;;29.90;13.93;;;12.80;99.90;;;;;;5095815;28;20466;-71
2022/09/11 06:30:00;;;;;;;40.17;15.50;;;12.80;99.90;;;;;;5106557;28;20035;-71
2022/09/11 06:32:26;;;;;;;36.78;15.75;;;12.80;99.90;;;;;;5106678;28;20138;-71
2022/09/11 06:34:52;;;;;;;21.77;14.82;;;12.80;99.90;;;;;;5108948;28;20062;-71
2022/09/11 06:37:18;;;;;;;30.75;15.77;;;12.90;99.90;;;;;;5093775;28;20433;-72
2022/09/11 06:39:44;;;;;;;35.20;16.13;;;12.90;99.90;;;;;;5112084;28;20112;-71
2022/09/11 06:42:09;;;;;;;30.75;17.05;;;12.90;99.90;;;;;;5110895;28;20473;-72
2022/09/11 06:44:35;;;;;;;27.88;18.73;;;12.90;99.90;;;;;;5092965;28;20138;-71
2022/09/11 06:47:01;;;;;;;23.83;16.35;;;13.00;99.90;;;;;;5093300;28;20059;-71
2022/09/11 06:49:27;;;;;;;24.50;16.95;;;13.00;99.90;;;;;;5111609;28;20084;-71
2022/09/11 06:51:53;;;;;;;27.85;17.45;;;13.00;99.90;;;;;;5111490;28;20431;-71
2022/09/11 06:54:19;;;;;;;32.92;18.65;;;13.10;99.90;;;;;;5111651;28;20028;-71
2022/09/11 06:56:44;;;;;;;25.40;17.23;;;13.10;99.90;;;;;;5095013;28;20035;-71
2022/09/11 06:59:10;;;;;;;27.52;16.63;;;13.20;99.90;;;;;;5108249;28;20031;-71
2022/09/11 07:01:38;;;;;;;26.08;18.20;;;13.20;99.90;;;;;;5089557;28;20028;-70
2022/09/11 07:04:04;;;;;;;24.50;18.55;;;13.30;99.90;;;;;;5090986;28;20490;-71
2022/09/11 07:06:30;;;;;;;20.05;14.25;;;13.40;99.90;;;;;;5091170;28;20043;-71
2022/09/11 07:09:01;;;;;;;23.10;17.13;;;13.40;99.90;;;;;;5101875;28;20086;-71
2022/09/11 07:11:31;;;;;;;27.58;17.80;;;13.40;99.90;;;;;;5111204;28;20472;-71
2022/09/11 07:13:58;;;;;;;25.52;16.92;;;13.50;99.90;;;;;;5111103;28;20035;-71
2022/09/11 07:16:24;;;;;;;24.20;17.35;;;13.60;99.90;;;;;;5107814;28;20471;-71
2022/09/11 07:18:50;;;;;;;26.08;18.48;;;13.70;99.90;;;;;;5101921;28;20028;-71
2022/09/11 07:21:20;;;;;;;27.85;20.00;;;13.80;99.90;;;;;;5107176;28;20389;-71
2022/09/11 07:23:53;;;;;;;28.50;18.35;;;13.90;99.90;;;;;;5109538;28;20540;-71
2022/09/11 07:26:19;;;;;;;28.40;19.23;;;14.00;99.90;;;;;;5099193;28;20028;-71
2022/09/11 07:28:47;;;;;;;32.05;19.85;;;14.10;99.90;;;;;;5110654;28;20039;-72
2022/09/11 07:31:16;;;;;;;30.73;20.63;;;14.20;99.90;;;;;;5111004;28;20019;-71
2022/09/11 07:33:44;;;;;;;29.75;19.75;;;14.40;99.90;;;;;;5111117;28;20040;-71
2022/09/11 07:36:28;;;;;;;32.43;20.40;;;14.50;99.90;;;;;;5111172;28;20469;-71
2022/09/11 07:38:55;;;;;;;30.50;20.27;;;14.60;99.90;;;;;;5109156;28;20055;-71
2022/09/11 07:41:22;;;;;;;33.97;22.02;;;14.80;99.90;;;;;;5103434;28;20028;-71
2022/09/11 07:43:53;;;;;;;22.42;16.38;;;14.90;99.90;;;;;;5098862;28;20044;-71
2022/09/11 07:46:18;;;;;;;28.45;18.63;;;15.00;99.90;;;;;;5110832;28;20041;-72
2022/09/11 07:48:44;;;;;;;27.67;18.65;;;15.10;99.90;;;;;;5092123;28;20024;-71
2022/09/11 07:51:12;;;;;;;29.83;20.15;;;15.20;99.90;;;;;;5094729;28;20024;-71
2022/09/11 07:53:39;;;;;;;28.95;20.80;;;15.30;99.90;;;;;;5076301;28;20532;-71
2022/09/11 07:56:16;;;;;;;28.03;20.90;;;15.40;99.90;;;;;;5103026;28;20071;-71
2022/09/11 07:58:42;;;;;;;26.50;20.20;;;15.50;99.90;;;;;;5103846;28;20284;-71
2022/09/11 08:01:10;;;;;;;29.02;20.73;;;15.70;99.90;;;;;;5099905;28;20031;-71
2022/09/11 08:03:36;;;;;;;26.02;20.00;;;15.80;99.90;;;;;;5102464;28;20039;-71
2022/09/11 08:06:06;;;;;;;30.45;20.77;;;15.90;99.90;;;;;;5099711;28;20125;-71
2022/09/11 08:08:31;;;;;;;;;;;16.10;99.90;;;;;;5104620;28;20028;-71
2022/09/11 08:11:07;;;;;;;23.17;18.00;;;16.20;99.90;;;;;;5101768;28;19923;-71
2022/09/11 08:13:34;;;;;;;25.48;18.95;;;16.40;99.90;;;;;;5101302;28;20408;-71
2022/09/11 08:16:00;;;;;;;22.30;18.85;;;16.60;99.90;;;;;;5089441;28;20035;-72
2022/09/11 08:18:26;;;;;;;23.40;18.65;;;16.70;99.90;;;;;;5085160;28;20048;-72
2022/09/11 08:20:51;;;;;;;24.58;18.58;;;16.80;99.90;;;;;;5088810;28;20158;-72
2022/09/11 08:23:17;;;;;;;29.13;19.38;;;16.90;99.90;;;;;;5104647;28;20401;-71
2022/09/11 08:25:43;;;;;;;24.95;19.08;;;17.00;99.90;;;;;;5086904;28;20398;-73
2022/09/11 08:28:10;;;;;;;24.63;18.30;;;17.00;99.90;;;;;;5104020;28;20490;-72
2022/09/11 08:30:37;;;;;;;24.70;19.55;;;17.10;99.90;;;;;;5086779;28;20027;-72
2022/09/11 08:33:08;;;;;;;26.27;20.90;;;17.20;99.90;;;;;;5087000;28;20405;-72
2022/09/11 08:35:34;;;;;;;23.75;19.20;;;17.40;99.90;;;;;;5109930;28;20125;-72
2022/09/11 08:38:01;;;;;;;23.02;17.52;;;17.50;99.90;;;;;;5102009;28;20032;-71
2022/09/11 08:40:28;;;;;;;24.27;19.20;;;17.70;99.90;;;;;;5091107;28;20040;-72
2022/09/11 08:42:59;;;;;;;22.15;19.10;;;17.80;99.90;;;;;;5091090;28;20050;-72
2022/09/11 08:45:29;;;;;;;21.77;18.23;;;17.90;99.90;;;;;;5091128;28;20547;-72
2022/09/11 08:47:57;;;;;;;24.08;18.77;;;18.00;99.90;;;;;;5109383;28;20090;-72
2022/09/11 08:50:38;;;;;;;18.20;15.45;;;18.10;99.90;;;;;;5109296;28;20470;-73
2022/09/11 08:53:07;;;;;;;18.67;16.50;;;18.20;99.90;;;;;;5105069;28;20096;-72
2022/09/11 08:55:49;;;;;;;18.77;15.35;;;18.30;99.90;;;;;;5098892;28;20031;-72
2022/09/11 08:58:46;;;;;;;18.58;15.85;;;18.50;99.90;;;;;;5108739;28;20035;-72
2022/09/11 09:01:29;;;;;;;19.60;17.30;;;18.60;99.90;;;;;;5092494;28;20100;-72
2022/09/11 09:04:13;;;;;;;18.42;15.85;;;18.70;99.90;;;;;;5070155;28;20055;-73
2022/09/11 09:07:06;;;;;;;16.98;15.25;;;18.90;99.90;;;;;;5088832;28;20028;-72
2022/09/11 09:09:35;;;;;;;19.02;16.55;;;19.10;99.90;;;;;;5077975;28;20449;-72
2022/09/11 09:12:26;;;;;;;16.55;14.85;;;19.20;99.90;;;;;;5100730;28;20108;-72
2022/09/11 09:15:07;;;;;;;17.05;14.75;;;19.40;99.90;;;;;;5090420;28;20050;-72
2022/09/11 09:17:40;;;;;;;15.13;13.48;;;19.60;99.90;;;;;;5108830;28;20036;-73
2022/09/11 09:20:22;;;;;;;16.92;14.65;;;19.80;99.90;;;;;;5108905;28;20067;-72
2022/09/11 09:22:56;;;;;;;14.68;13.07;;;20.00;99.90;;;;;;5104797;28;20550;-72
2022/09/11 09:25:23;;;;;;;15.57;11.75;;;20.20;99.90;;;;;;5088418;28;20024;-72
2022/09/11 09:27:53;;;;;;;13.15;10.90;;;20.40;99.90;;;;;;5069812;28;20105;-72
2022/09/11 09:30:22;;;;;;;10.90;9.00;;;20.50;99.90;;;;;;5088400;28;20024;-73
2022/09/11 09:32:51;;;;;;;;;;;20.60;99.90;;;;;;5088913;28;20040;-73
2022/09/11 09:35:39;;;;;;;13.25;10.95;;;20.70;99.90;;;;;;5069866;28;19912;-73
2022/09/11 09:38:18;;;;;;;11.40;9.45;;;20.80;99.90;;;;;;5088106;28;20545;-74
2022/09/11 09:41:08;;;;;;;13.07;10.75;;;20.90;99.90;;;;;;5091525;28;20032;-72
2022/09/11 09:43:45;;;;;;;14.43;8.40;;;20.80;99.90;;;;;;5105222;28;20130;-72
2022/09/11 09:46:23;;;;;;;9.23;7.20;;;20.70;99.90;;;;;;5102477;28;20050;-73
2022/09/11 09:48:48;;;;;;;10.82;7.38;;;20.60;99.90;;;;;;5088100;28;20028;-73
2022/09/11 09:51:14;;;;;;;12.75;8.23;;;20.50;99.90;;;;;;5069625;28;20047;-72
2022/09/11 09:54:00;;;;;;;11.10;7.22;;;20.40;99.90;;;;;;5087560;28;20430;-72
2022/09/11 09:56:29;;;;;;;11.70;7.07;;;20.40;99.90;;;;;;5087792;28;20482;-72
2022/09/11 09:59:12;;;;;;;7.63;5.50;;;20.40;99.90;;;;;;5097907;28;20027;-73
2022/09/11 10:01:43;;;;;;;8.10;4.65;;;20.30;99.90;;;;;;5108091;28;20055;-74
2022/09/11 10:04:29;;;;;;;7.97;4.00;;;20.40;99.90;;;;;;5108152;28;20728;-72
2022/09/11 10:07:13;;;;;;;6.60;3.85;;;20.70;99.90;;;;;;5107857;28;20785;-72
2022/09/11 10:09:48;;;;;;;6.65;4.10;;;21.10;99.90;;;;;;5089424;28;20031;-72
2022/09/11 10:12:26;;;;;;;6.15;3.88;;;21.40;99.90;;;;;;5092140;28;20038;-72
2022/09/11 10:15:02;;;;;;;7.28;3.47;;;21.70;99.90;;;;;;5092077;28;20134;-72
2022/09/11 10:17:28;;;;;;;6.63;3.42;;;21.60;99.90;;;;;;5092374;28;20077;-72
2022/09/11 10:19:56;;;;;;;6.18;4.22;;;21.40;99.90;;;;;;5092252;28;20063;-72
2022/09/11 10:22:25;;;;;;;8.70;4.97;;;21.20;99.90;;;;;;5091497;28;20888;-73
2022/09/11 10:25:15;;;;;;;6.67;4.13;;;21.10;99.90;;;;;;5073429;28;20053;-73
2022/09/11 10:27:58;;;;;;;7.25;4.13;;;21.20;99.90;;;;;;5091923;28;20767;-72
2022/09/11 10:30:39;;;;;;;7.43;3.97;;;21.50;99.90;;;;;;5091706;28;20436;-73
2022/09/11 10:33:31;;;;;;;7.22;4.38;;;21.70;99.90;;;;;;5091709;28;20032;-72
2022/09/11 10:35:59;;;;;;;8.32;3.78;;;22.00;99.90;;;;;;5073192;28;20028;-72
2022/09/11 10:38:46;;;;;;;7.80;3.60;;;22.20;99.90;;;;;;5091428;28;20078;-72
2022/09/11 10:41:11;;;;;;;7.60;3.63;;;22.20;99.90;;;;;;5106375;28;20399;-73
2022/09/11 10:43:46;;;;;;;7.32;3.42;;;22.20;99.90;;;;;;5111778;28;20466;-71
2022/09/11 10:46:17;;;;;;;5.43;3.03;;;22.40;99.90;;;;;;5112304;28;20040;-72
2022/09/11 10:48:53;;;;;;;6.28;3.15;;;22.60;99.90;;;;;;5093381;28;20582;-73
2022/09/11 10:51:19;;;;;;;7.22;2.97;;;22.70;99.90;;;;;;5093407;28;20574;-73
2022/09/11 10:54:18;;;;;;;6.22;3.55;;;22.60;99.90;;;;;;5111971;28;20031;-73
2022/09/11 10:56:59;;;;;;;5.63;3.20;;;22.60;99.90;;;;;;5086269;28;20108;-74
2022/09/11 10:59:50;;;;;;;6.70;2.80;;;22.70;99.90;;;;;;5084834;28;20031;-73
2022/09/11 11:02:27;;;;;;;5.63;2.60;;;22.80;99.90;;;;;;5092608;28;20122;-73
2022/09/11 11:04:59;;;;;;;5.75;2.78;;;22.60;99.90;;;;;;5111686;28;20035;-74
2022/09/11 11:07:47;;;;;;;5.55;2.97;;;22.60;99.90;;;;;;5111547;28;20111;-73
2022/09/11 11:10:23;;;;;;;5.05;2.75;;;22.40;99.90;;;;;;5111504;28;20055;-72
2022/09/11 11:13:13;;;;;;;5.05;2.65;;;22.40;99.90;;;;;;5111404;28;20108;-73
2022/09/11 11:16:07;;;;;;;6.10;2.63;;;22.40;99.90;;;;;;5012653;28;20116;-73
2022/09/11 11:19:07;;;;;;;6.05;3.17;;;22.20;99.90;;;;;;5008195;28;20125;-74
2022/09/11 11:21:42;;;;;;;7.53;3.65;;;22.10;99.90;;;;;;5007309;28;20046;-73
2022/09/11 11:24:32;;;;;;;7.00;3.33;;;22.00;99.90;;;;;;4991364;28;20101;-74
2022/09/11 11:27:16;;;;;;;5.72;3.28;;;22.10;99.90;;;;;;5018832;28;20045;-73
2022/09/11 11:30:19;;;;;;;6.25;3.55;;;22.20;99.90;;;;;;5027641;28;20621;-73
2022/09/11 11:32:45;;;;;;;6.05;3.47;;;22.10;99.90;;;;;;5011262;28;20041;-72
2022/09/11 11:35:17;;;;;;;8.18;3.40;;;22.00;99.90;;;;;;5044189;28;20577;-72
2022/09/11 11:37:45;;;;;;;5.88;2.97;;;22.00;99.90;;;;;;5027673;28;20045;-73
2022/09/11 11:40:36;;;;;;;8.10;3.33;;;22.00;99.90;;;;;;5027778;28;20080;-74
2022/09/11 11:43:11;;;;;;;8.40;3.30;;;22.30;99.90;;;;;;5027542;28;20038;-72
2022/09/11 11:45:43;;;;;;;5.28;2.70;;;22.40;99.90;;;;;;5027420;28;20060;-72
2022/09/11 11:48:22;;;;;;;5.15;2.90;;;22.80;99.90;;;;;;5027635;28;20053;-72
2022/09/11 11:51:01;;;;;;;7.15;2.60;;;24.10;99.10;;;;;;5027336;28;20056;-72
2022/09/11 11:53:42;;;;;;;6.22;2.22;;;24.20;99.50;;;;;;5095197;28;20072;-73
2022/09/11 11:56:32;;;;;;;5.55;2.53;;;24.00;99.00;;;;;;5097287;28;20111;-73
2022/09/11 11:59:21;;;;;;;6.90;3.50;;;23.90;99.30;;;;;;5090017;28;20034;-72
2022/09/11 12:02:04;;;;;;;7.75;2.83;;;23.90;98.90;;;;;;5094176;28;20161;-73
2022/09/11 12:05:02;;;;;;;5.03;2.28;;;23.90;99.80;;;;;;5111641;27;20515;-74
2022/09/11 12:07:32;;;;;;;6.75;2.55;;;23.60;98.90;;;;;;5099109;27;20043;-72
2022/09/11 12:10:00;;;;;;;6.47;2.50;;;23.20;99.90;;;;;;5092324;28;20023;-73
2022/09/11 12:12:33;;;;;;;5.75;2.10;;;22.80;99.90;;;;;;5099164;28;20039;-75
2022/09/11 12:15:08;;;;;;;6.32;2.58;;;22.40;99.90;;;;;;5103819;27;20051;-73
2022/09/11 12:17:37;;;;;;;4.63;2.30;;;22.40;99.90;;;;;;5115855;27;20434;-73
2022/09/11 12:20:09;;;;;;;7.35;2.70;;;22.50;99.90;;;;;;5097486;27;20505;-73
2022/09/11 12:22:46;;;;;;;6.00;2.20;;;22.50;99.90;;;;;;5101351;27;20499;-72
2022/09/11 12:25:20;;;;;;;7.05;2.53;;;22.40;99.90;;;;;;5111603;27;20067;-72
2022/09/11 12:27:47;;;;;;;6.07;2.53;;;22.70;99.90;;;;;;5106966;28;20035;-72
2022/09/11 12:30:16;;;;;;;5.75;2.13;;;22.70;99.90;;;;;;5086924;28;20031;-72
2022/09/11 12:32:45;;;;;;;5.68;2.70;;;22.70;99.90;;;;;;5099117;28;20097;-73
2022/09/11 12:35:43;;;;;;;4.93;2.08;;;22.70;99.90;;;;;;5102805;27;20055;-72
2022/09/11 12:38:08;;;;;;;7.10;2.65;;;22.80;99.90;;;;;;5099184;27;20063;-72
2022/09/11 12:41:00;;;;;;;6.38;2.33;;;22.90;99.60;;;;;;5100881;27;20433;-72
2022/09/11 12:43:29;;;;;;;5.05;2.35;;;22.90;99.90;;;;;;5103771;28;20062;-72
2022/09/11 12:45:55;;;;;;;6.25;2.20;;;23.00;99.80;;;;;;5108125;28;20073;-72
2022/09/11 12:48:37;;;;;;;5.70;2.50;;;23.00;99.90;;;;;;5106921;27;20116;-72
2022/09/11 12:51:05;;;;;;;6.88;2.35;;;22.90;99.90;;;;;;5099885;28;20040;-72
2022/09/11 12:53:34;;;;;;;5.90;2.60;;;22.90;99.90;;;;;;5090842;28;20405;-71
2022/09/11 12:56:04;;;;;;;6.68;2.35;;;22.90;99.90;;;;;;5109038;28;20449;-72
2022/09/11 12:58:32;;;;;;;;;;;23.00;99.90;;;;;;5128674;27;20031;-70